Hovedside
METAR-TAF:

METAR-TAF

Lufthavner :

Björneborg, Finland

Björneborg lufthavn

breddegrad: 61-28N, lengdegrad: 021-48E, høyde over havet: 13 m

Gjeldene værobservasjon

Denne rapporten ble laget for 18 minutter siden, klokken 05:50 UTC
Vind 8 kt fra Vest-nordvest
Temperatur 0°C
Luftfuktighet 74%
Trykk 1020 hPa
Sikt 10 km eller mer
ingen skyer under 1500 m og ingen bygeskyer

METAR: EFPO 240550Z AUTO 29008KT CAVOK 00/M04 Q1020 R12/0/0095

Tid: 08:08 (06:08 UTC)

Varsel

Denne rapporten ble laget for 38 minutter siden, klokken 05:30 UTC
Varsel gyldig fra 24. klokken 06 UTC til 24. klokken 15 UTC
Vind 10 kt fra Vest-nordvest
Sikt 10 km eller mer
ingen skyer under 1500 m og ingen bygeskyer
Sannsynlighet 30% :
Midlertidig
fra 24. klokken 07 UTC til 24. klokken 10 UTC
Vind 15 kt fra Vest-nordvest med vindkast opp mot 25 kt
Sikt: 4000 m
Få skyer i en høyde av 4000 ft, Bygeskyer.
lette snøbyger

TAF: EFPO 240530Z 2406/2415 29010KT CAVOK PROB30 TEMPO 2407/2410 29015G25KT 4000 -SHSN FEW040CB

Værobservasjoner og værvarsel for over 4000 flyplasser (METAR- og TAF-rapporter).

Tilgjengelige stasjoner er representert av de røde og gule prikkene på kartet.

Hold musepekeren over prikken for å se navnet på stasjonen.

Klikk så for å se værobservasjoner og -varsler.

For å forandre kartet kan du klikke på den grønne knappen med svart kryss for å zoome inn, på den grønne knappen med strek for å zoome ut, eller på de grønne pilene for å se tilstøtende kart.


METAR-TAF: